Terminal Aerodrome Forecast
Issued by NWS

Home | Current Version | Previous Version | Text Only | Print | Product List | Glossary On
Versions: 1 2 3 4 5 6 7 8 9 10 11 12 13 14 15 16 17 18 19 20 21 22 23 24
000
FTUS41 KGYX 250853 AAA
TAFMHT
TAF AMD
KMHT 250853Z 2509/2606 01006KT P6SM BKN015
     FM251200 36007KT P6SM OVC015
     FM251700 01006KT P6SM BKN050
     FM260200 00000KT 1SM BR SCT090=

USA.gov is the U.S. government's official web portal to all federal, state and local government web resources and services.